Data for 11/08/2009

Time Sea-Level Adjusted Pressure Absolute Pressure Temperature Relative Humidity Dew Point   
(mb) (inHg) (mb) (inHg) (C) (F) (%) (C) (F)
00:05 1014 29.94 843 24.89 1.7 35 47 -8.5 16.7
00:10 1014 29.94 843 24.89 1.4 34.4 48 -8.4 16.8
00:15 1014 29.94 843 24.89 1.3 34.3 48 -8.5 16.6
00:20 1014 29.94 843 24.89 1.4 34.5 50 -8 17.7
00:25 1014 29.94 843 24.89 1.4 34.5 49 -8.2 17.2
00:30 1014 29.94 843 24.89 1.6 34.9 46 -8.9 16
00:35 1014 29.94 843 24.89 1.7 35 48 -8.1 17.4
00:40 1014 29.94 843 24.89 1.7 35 49 -7.9 17.8
00:45 1014 29.94 843 24.89 1.7 35.1 50 -7.6 18.3
00:50 1014 29.94 843 24.89 1.6 34.9 51 -7.3 18.8
00:55 1014 29.94 843 24.89 1.2 34.1 54 -7.1 19.1
01:00 1014 29.94 843 24.89 0.7 33.2 55 -7.3 18.8
01:05 1014 29.94 844 24.92 -0.4 31.3 59 -7.4 18.7
01:10 1014 29.94 844 24.92 -0.2 31.6 57 -7.7 18.1
01:15 1014 29.94 844 24.92 0.4 32.7 56 -7.3 18.9
01:20 1014 29.94 844 24.92 0.7 33.2 56 -7.2 19
01:25 1014 29.94 844 24.92 0.5 32.9 57 -7 19.4
01:30 1014 29.94 844 24.92 0.4 32.7 57 -7.1 19.2
01:35 1014 29.94 844 24.92 0.3 32.5 59 -6.9 19.6
01:40 1014 29.94 844 24.92 -0.2 31.6 63 -6.5 20.4
01:45 1014 29.94 844 24.92 -0.6 30.9 64 -6.6 20.1
01:50 1014 29.94 844 24.92 -0.5 31.1 63 -6.8 19.8
01:55 1014 29.94 844 24.92 -0.1 31.8 62 -6.6 20.2
02:00 1015 29.97 844 24.92 0.1 32.2 57 -7.4 18.6
02:05 1015 29.97 844 24.92 0.8 33.4 57 -6.8 19.8
02:10 1015 29.97 844 24.92 0.8 33.4 56 -7.1 19.3
02:15 1015 29.97 844 24.92 0.7 33.3 55 -7.4 18.7
02:20 1015 29.97 844 24.92 0.6 33.1 55 -7.5 18.5
02:25 1015 29.97 844 24.92 0.9 33.6 52 -7.8 18
02:30 1015 29.97 844 24.92 1.6 34.9 47 -8.5 16.7
02:35 1015 29.97 844 24.92 2.2 36 46 -8.2 17.2
02:40 1015 29.97 844 24.92 2.3 36.1 45 -8.5 16.8
02:45 1015 29.97 844 24.92 2.5 36.5 45 -8.1 17.3
02:50 1015 29.97 844 24.92 2.4 36.4 45 -8.3 17.1
02:55 1015 29.97 844 24.92 2.3 36.2 44 -8.7 16.4
03:00 1015 29.97 844 24.92 2.3 36.2 45 -8.5 16.8
03:05 1015 29.97 844 24.92 2.1 35.7 46 -8.3 17.1
03:10 1015 29.97 844 24.92 2 35.5 45 -8.9 16.1
03:15 1015 29.97 844 24.92 1.8 35.3 46 -8.5 16.6
03:20 1015 29.97 845 24.95 1.5 34.6 47 -8.8 16.2
03:25 1015 29.97 845 24.95 1.6 34.9 46 -8.8 16.1
03:30 1015 29.97 845 24.95 2.1 35.7 45 -8.8 16.2
03:35 1015 29.97 845 24.95 2.5 36.4 44 -8.6 16.5
03:40 1016 30 845 24.95 2.5 36.5 43 -8.8 16.2
03:45 1015 29.97 845 24.95 2.5 36.5 43 -8.8 16.2
03:50 1016 30 845 24.95 2.6 36.7 42 -9 15.7
03:55 1016 30 845 24.95 2.6 36.6 42 -9.2 15.4
04:00 1016 30 845 24.95 2.6 36.7 41 -9.4 15.1
04:05 1016 30 845 24.95 2.6 36.8 41 -9.3 15.3
04:10 1016 30 845 24.95 2.6 36.6 40 -9.6 14.7
04:15 1016 30 845 24.95 2.6 36.6 40 -9.7 14.5
04:20 1016 30 845 24.95 2.5 36.4 40 -9.8 14.4
04:25 1016 30 845 24.95 2.4 36.4 40 -9.8 14.3
04:30 1016 30 845 24.95 2.4 36.3 38 -10.4 13.3
04:35 1016 30 845 24.95 2.7 36.8 37 -10.6 12.9
04:40 1016 30 845 24.95 2.8 37.1 37 -10.6 12.9
04:45 1016 30 845 24.95 2.8 37.1 37 -10.4 13.2
04:50 1016 30 845 24.95 2.7 36.8 37 -10.6 12.9
04:55 1016 30 845 24.95 2.5 36.5 40 -9.9 14.2
05:00 1016 30 845 24.95 2 35.6 43 -9.4 15.1
05:05 1016 30 845 24.95 1.4 34.5 42 -10.1 13.8
05:10 1016 30 845 24.95 1.6 34.9 41 -10.3 13.5
05:15 1016 30 845 24.95 1.6 35 41 -10.4 13.3
05:20 1016 30 845 24.95 1.8 35.3 39 -10.7 12.7
05:25 1016 30 845 24.95 2.1 35.8 37 -11 12.1
05:30 1016 30 845 24.95 2.3 36.1 39 -10.3 13.5
05:35 1016 30 845 24.95 2.3 36.1 39 -10.4 13.3
05:40 1016 30 845 24.95 2.3 36.2 34 -11.9 10.5
05:45 1016 30 845 24.95 3 37.4 35 -11 12.3
05:50 1016 30 845 24.95 2.6 36.7 37 -10.5 13.1
05:55 1016 30 846 24.98 2.1 35.8 40 -10.3 13.5
06:00 1016 30 846 24.98 1.9 35.3 39 -10.6 12.9
06:05 1016 30 846 24.98 2.3 36.1 36 -11.4 11.4
06:10 1016 30 846 24.98 2.4 36.3 37 -10.8 12.5
06:15 1016 30 846 24.98 2.3 36.2 37 -11 12.2
06:20 1016 30 846 24.98 2.1 35.8 38 -10.6 12.9
06:25 1016 30 846 24.98 2 35.5 38 -11.1 12
06:30 1017 30.03 846 24.98 2.3 36.1 37 -10.8 12.6
06:35 1017 30.03 846 24.98 2.1 35.8 37 -11 12.1
06:40 1017 30.03 846 24.98 2.1 35.7 38 -10.8 12.6
06:45 1017 30.03 846 24.98 1.8 35.3 38 -10.9 12.4
06:50 1017 30.03 846 24.98 1.7 35 40 -10.6 12.8
06:55 1017 30.03 846 24.98 1.5 34.7 40 -10.8 12.5
07:00 1017 30.03 846 24.98 1.7 35 39 -10.9 12.3
07:05 1017 30.03 846 24.98 1.7 35.1 39 -10.8 12.6
07:10 1017 30.03 846 24.98 1.8 35.2 39 -10.7 12.8
07:15 1017 30.03 846 24.98 1.8 35.2 38 -11 12.1
07:20 1017 30.03 846 24.98 1.9 35.3 39 -10.6 12.9
07:25 1017 30.03 846 24.98 1.4 34.5 43 -9.9 14.2
07:30 1017 30.03 846 24.98 1.2 34.2 42 -10.4 13.2
07:35 1017 30.03 846 24.98 1.4 34.6 42 -10.2 13.7
07:40 1017 30.03 846 24.98 1.5 34.8 42 -10.1 13.8
07:45 1017 30.03 846 24.98 1.7 35.1 40 -10.4 13.3
07:50 1017 30.03 846 24.98 2 35.6 40 -10.2 13.6
07:55 1017 30.03 846 24.98 2.2 36 40 -9.9 14.2
08:00 1017 30.03 846 24.98 2.1 35.8 41 -9.8 14.4
08:05 1017 30.03 846 24.98 2.3 36.2 38 -10.5 13.1
08:10 1017 30.03 847 25.01 2.9 37.1 39 -9.7 14.5
08:15 1017 30.03 847 25.01 3 37.3 40 -9.4 15
08:20 1017 30.03 847 25.01 3 37.5 40 -9.3 15.3
08:25 1017 30.03 847 25.01 3.2 37.7 37 -10.1 13.8
08:30 1017 30.03 847 25.01 3.4 38.1 39 -9.2 15.4
08:35 1018 30.06 847 25.01 3.6 38.5 36 -10.1 13.8
08:40 1018 30.06 847 25.01 4.2 39.5 33 -10.7 12.7
08:45 1018 30.06 847 25.01 4.6 40.3 32 -10.7 12.7
08:50 1018 30.06 847 25.01 4.8 40.7 32 -10.6 12.8
08:55 1018 30.06 847 25.01 5 41 32 -10.5 13.2
09:00 1018 30.06 847 25.01 4.8 40.7 33 -10.1 13.8
09:05 1018 30.06 847 25.01 4.6 40.3 32 -10.6 13
09:10 1018 30.06 847 25.01 4.6 40.3 33 -10.5 13.1
09:15 1018 30.06 847 25.01 4.7 40.4 33 -10.4 13.2
09:20 1018 30.06 847 25.01 4.7 40.5 33 -10.3 13.5
09:25 1018 30.06 847 25.01 4.9 40.8 31 -11 12.2
09:30 1018 30.06 847 25.01 5.1 41.2 31 -10.8 12.6
09:35 1018 30.06 847 25.01 5.4 41.8 30 -11 12.2
09:40 1018 30.06 847 25.01 5.6 42.2 29 -11.1 12
09:45 1018 30.06 847 25.01 5.9 42.6 29 -10.9 12.3
09:50 1018 30.06 847 25.01 6 42.8 28 -11 12.2
09:55 1018 30.06 847 25.01 6.4 43.6 27 -11.1 12.1
10:00 1018 30.06 847 25.01 6.4 43.4 27 -11.2 11.9
10:05 1018 30.06 847 25.01 6.7 44 27 -11.1 12
10:10 1018 30.06 847 25.01 6.8 44.2 26 -11.5 11.3
10:15 1018 30.06 847 25.01 6.6 43.8 27 -11.3 11.7
10:20 1018 30.06 847 25.01 6.2 43.2 28 -11 12.3
10:25 1018 30.06 847 25.01 6 42.8 29 -10.8 12.5
10:30 1018 30.06 847 25.01 6 42.9 27 -11.5 11.3
10:35 1018 30.06 847 25.01 6.4 43.5 27 -11.1 12
10:40 1018 30.06 847 25.01 6.4 43.6 27 -11.3 11.7
10:45 1018 30.06 847 25.01 6.8 44.2 26 -11.6 11
10:50 1018 30.06 847 25.01 7.3 45.2 25 -11.4 11.4
10:55 1018 30.06 847 25.01 7.2 44.9 24 -12.3 9.9
11:00 1018 30.06 847 25.01 6.7 44.1 25 -12.1 10.2
11:05 1018 30.06 847 25.01 6.6 43.9 25 -11.9 10.7
11:10 1018 30.06 847 25.01 6.6 43.9 25 -12 10.3
11:15 1018 30.06 847 25.01 6.2 43.1 26 -11.9 10.5
11:20 1018 30.06 847 25.01 6.1 42.9 26 -12.2 10.1
11:25 1018 30.06 847 25.01 5.9 42.7 25 -12.6 9.3
11:30 1018 30.06 847 25.01 6.1 43 26 -12.3 9.9
11:35 1018 30.06 847 25.01 6.1 43 25 -12.6 9.2
11:40 1018 30.06 847 25.01 6 42.8 26 -12.2 10
11:45 1018 30.06 847 25.01 5.9 42.7 26 -12.3 9.8
11:50 1018 30.06 847 25.01 6 42.8 26 -12.3 9.8
11:55 1018 30.06 847 25.01 6.6 43.9 24 -12.5 9.4
12:00 1018 30.06 847 25.01 6.8 44.3 24 -12.5 9.4
12:05 1018 30.06 847 25.01 6.4 43.6 24 -12.5 9.4
12:10 1018 30.06 847 25.01 6.8 44.3 25 -12 10.4
12:15 1018 30.06 847 25.01 6.7 44.1 25 -11.9 10.7
12:20 1018 30.06 847 25.01 7 44.7 24 -12.4 9.6
12:25 1018 30.06 847 25.01 7.4 45.4 23 -12.4 9.6
12:30 1018 30.06 847 25.01 7.3 45.1 24 -12.1 10.2
12:35 1018 30.06 847 25.01 7.8 46.1 23 -12 10.3
12:40 1018 30.06 847 25.01 8 46.5 23 -12.2 10.1
12:45 1018 30.06 847 25.01 7.4 45.3 25 -11.6 11.2
12:50 1018 30.06 847 25.01 6.9 44.4 25 -11.8 10.7
12:55 1018 30.06 847 25.01 7.7 45.8 23 -12.1 10.1
13:00 1018 30.06 847 25.01 8 46.4 22 -12.4 9.7
13:05 1018 30.06 847 25.01 7.7 45.8 23 -12.1 10.3
13:10 1018 30.06 847 25.01 8.1 46.6 23 -12 10.4
13:15 1018 30.06 847 25.01 8.4 47.1 23 -11.9 10.6
13:20 1018 30.06 847 25.01 7.7 45.9 24 -11.5 11.3
13:25 1018 30.06 847 25.01 7.7 45.9 24 -11.6 11.1
13:30 1018 30.06 847 25.01 8.5 47.4 23 -11.3 11.7
13:35 1018 30.06 847 25.01 8.5 47.3 23 -11.6 11.2
13:40 1018 30.06 847 25.01 8.4 47 23 -11.5 11.4
13:45 1018 30.06 847 25.01 8.2 46.7 23 -11.6 11.2
13:50 1018 30.06 847 25.01 8.1 46.6 24 -11.5 11.3
13:55 1018 30.06 847 25.01 8 46.4 22 -12.2 10
14:00 1018 30.06 847 25.01 8.6 47.4 21 -12.3 9.9
14:05 1018 30.06 847 25.01 8.3 47 22 -12 10.3
14:10 1018 30.06 847 25.01 8.2 46.8 23 -11.8 10.7
14:15 1018 30.06 847 25.01 8.3 47 22 -12 10.5
14:20 1018 30.06 847 25.01 7.8 46.1 24 -11.8 10.8
14:25 1018 30.06 847 25.01 7.8 46 24 -11.6 11.2
14:30 1018 30.06 847 25.01 7.7 45.9 23 -12.1 10.2
14:35 1018 30.06 847 25.01 7.7 45.8 23 -12.1 10.1
14:40 1018 30.06 847 25.01 7.5 45.4 23 -12.3 9.9
14:45 1018 30.06 847 25.01 7.7 45.8 23 -12.3 9.9
14:50 1018 30.06 847 25.01 8.3 46.9 21 -12.9 8.7
14:55 1018 30.06 847 25.01 8.4 47.2 21 -12.8 9
15:00 1018 30.06 847 25.01 9 48.1 22 -11.8 10.7
15:05 1018 30.06 847 25.01 8.9 48 21 -12.1 10.3
15:10 1018 30.06 847 25.01 8.8 47.8 22 -11.7 10.9
15:15 1018 30.06 848 25.04 8.5 47.3 22 -12.3 9.9
15:20 1018 30.06 848 25.04 8.3 46.9 23 -11.8 10.7
15:25 1018 30.06 848 25.04 8.7 47.6 22 -12.2 10
15:30 1018 30.06 848 25.04 8.7 47.6 21 -12.4 9.7
15:35 1018 30.06 848 25.04 8.5 47.2 22 -11.8 10.8
15:40 1018 30.06 848 25.04 8.2 46.8 22 -12.3 9.8
15:45 1018 30.06 848 25.04 8.5 47.3 23 -11.8 10.8
15:50 1018 30.06 848 25.04 8.5 47.3 22 -12 10.4
15:55 1018 30.06 848 25.04 8.5 47.3 22 -11.8 10.8
16:00 1018 30.06 848 25.04 8.2 46.7 23 -11.7 10.9
16:05 1018 30.06 848 25.04 7.9 46.2 24 -11.5 11.3
16:10 1018 30.06 848 25.04 7.9 46.2 24 -11.6 11.2
16:15 1019 30.09 848 25.04 7.9 46.3 24 -11.6 11.1
16:20 1019 30.09 848 25.04 7.9 46.3 24 -11.5 11.3
16:25 1019 30.09 848 25.04 8 46.4 24 -11.2 11.8
16:30 1019 30.09 848 25.04 7.8 46.1 25 -11.2 11.8
16:35 1019 30.09 848 25.04 7.8 46.1 24 -11.3 11.6
16:40 1019 30.09 848 25.04 7.5 45.6 25 -11.2 11.9
16:45 1019 30.09 848 25.04 7 44.7 26 -11.1 12.1
16:50 1019 30.09 848 25.04 6.7 44.1 27 -11 12.2
16:55 1019 30.09 848 25.04 6.6 43.8 27 -11 12.2
17:00 1019 30.09 848 25.04 6.4 43.5 28 -10.9 12.5
17:05 1019 30.09 848 25.04 6 42.9 29 -10.8 12.6
17:10 1019 30.09 848 25.04 5.3 41.5 32 -10.2 13.6
17:15 1019 30.09 848 25.04 4.6 40.3 32 -10.9 12.4
17:20 1019 30.09 848 25.04 4.8 40.7 31 -10.9 12.4
17:25 1019 30.09 848 25.04 4.9 40.8 31 -11 12.2
17:30 1019 30.09 848 25.04 5 40.9 30 -11.4 11.5
17:35 1019 30.09 848 25.04 5 41 30 -11 12.2
17:40 1019 30.09 849 25.07 4.7 40.5 32 -10.6 12.9
17:45 1019 30.09 849 25.07 4.3 39.7 33 -10.7 12.7
17:50 1019 30.09 849 25.07 3.7 38.7 35 -10.4 13.3
17:55 1020 30.12 849 25.07 3.5 38.3 34 -10.8 12.6
18:00 1020 30.12 849 25.07 3.6 38.5 36 -10.2 13.6
18:05 1020 30.12 849 25.07 3.4 38.2 36 -10.4 13.2
18:10 1020 30.12 849 25.07 3.6 38.5 35 -10.4 13.3
18:15 1020 30.12 849 25.07 3.7 38.6 37 -9.9 14.2
18:20 1020 30.12 849 25.07 3.4 38 39 -9.4 15
18:25 1020 30.12 849 25.07 3.2 37.8 39 -9.6 14.8
18:30 1020 30.12 849 25.07 3.4 38.1 37 -10 14
18:35 1020 30.12 849 25.07 3.5 38.3 38 -9.6 14.7
18:40 1020 30.12 849 25.07 3.6 38.5 37 -9.8 14.4
18:45 1020 30.12 849 25.07 3.4 38.1 39 -9.3 15.3
18:50 1020 30.12 849 25.07 3.4 38.1 38 -9.5 14.9
18:55 1020 30.12 849 25.07 3.3 37.9 40 -9.2 15.4
19:00 1020 30.12 849 25.07 3.1 37.6 40 -9.4 15.1
19:05 1020 30.12 849 25.07 3.1 37.6 39 -9.4 15.1
19:10 1020 30.12 849 25.07 3.4 38.1 39 -9.2 15.4
19:15 1020 30.12 849 25.07 3.2 37.8 39 -9.4 15.2
19:20 1020 30.12 849 25.07 3.3 37.9 40 -9 15.8
19:25 1020 30.12 849 25.07 3.8 38.8 37 -9.7 14.6
19:30 1020 30.12 849 25.07 4.2 39.5 36 -9.5 14.9
19:35 1020 30.12 849 25.07 3.7 38.7 39 -9 15.9
19:40 1020 30.12 849 25.07 3.5 38.2 39 -9.3 15.3
19:45 1020 30.12 849 25.07 3.2 37.8 40 -9.1 15.7
19:50 1020 30.12 849 25.07 3.1 37.5 41 -9.1 15.7
19:55 1020 30.12 849 25.07 2.8 37 41 -9.1 15.6
20:00 1020 30.12 849 25.07 2.6 36.7 40 -9.6 14.7
20:05 1020 30.12 849 25.07 2.6 36.6 41 -9.4 15.1
20:10 1020 30.12 850 25.1 2.5 36.5 40 -9.7 14.5
20:15 1020 30.12 850 25.1 2.7 36.8 41 -9.4 15.1
20:20 1020 30.12 850 25.1 2.5 36.4 40 -9.9 14.3
20:25 1021 30.15 850 25.1 2.5 36.4 40 -9.9 14.3
20:30 1021 30.15 850 25.1 3.1 37.5 38 -9.8 14.4
20:35 1021 30.15 850 25.1 3.1 37.5 38 -9.9 14.2
20:40 1021 30.15 850 25.1 2.6 36.7 40 -9.7 14.5
20:45 1021 30.15 850 25.1 2.2 36 41 -9.7 14.5
20:50 1021 30.15 850 25.1 2.1 35.8 40 -10.1 13.8
20:55 1021 30.15 850 25.1 2.2 36 40 -9.9 14.2
21:00 1021 30.15 850 25.1 2.2 36 40 -9.9 14.1
21:05 1021 30.15 850 25.1 2.3 36.1 39 -10.2 13.6
21:10 1021 30.15 850 25.1 2.2 36 41 -9.9 14.2
21:15 1021 30.15 850 25.1 2.1 35.7 40 -10.1 13.9
21:20 1021 30.15 850 25.1 2 35.5 41 -9.9 14.1
21:25 1021 30.15 850 25.1 2.4 36.3 40 -10 13.9
21:30 1021 30.15 850 25.1 2.1 35.8 42 -9.5 14.9
21:35 1021 30.15 850 25.1 1.8 35.2 41 -10.1 13.8
21:40 1021 30.15 850 25.1 2.2 35.9 38 -10.6 12.8
21:45 1021 30.15 850 25.1 2.6 36.7 40 -9.7 14.6
21:50 1021 30.15 850 25.1 1.8 35.2 42 -10 14.1
21:55 1021 30.15 850 25.1 2 35.6 40 -10.2 13.6
22:00 1021 30.15 850 25.1 2.1 35.8 39 -10.5 13.1
22:05 1021 30.15 850 25.1 2.9 37.1 37 -10.6 12.9
22:10 1021 30.15 850 25.1 3 37.4 38 -10.1 13.8
22:15 1021 30.15 850 25.1 2.7 36.9 39 -9.9 14.1
22:20 1021 30.15 850 25.1 2.6 36.7 39 -10.1 13.9
22:25 1021 30.15 850 25.1 2.7 36.8 40 -9.7 14.5
22:30 1021 30.15 850 25.1 2.3 36.2 42 -9.4 15
22:35 1021 30.15 850 25.1 1.6 34.9 45 -9.1 15.7
22:40 1021 30.15 850 25.1 0.8 33.5 46 -9.4 15.1
22:45 1021 30.15 850 25.1 0.3 32.5 48 -9.5 14.8
22:50 1021 30.15 850 25.1 0.2 32.3 48 -9.6 14.8
22:55 1021 30.15 850 25.1 0.4 32.8 48 -9.4 15
23:00 1021 30.15 850 25.1 0.3 32.6 48 -9.5 14.9
23:05 1021 30.15 850 25.1 0.4 32.6 48 -9.6 14.8
23:10 1021 30.15 850 25.1 0.5 32.9 47 -9.5 14.8
23:15 1021 30.15 851 25.13 0.4 32.7 48 -9.5 14.9
23:20 1021 30.15 851 25.13 0.1 32.2 48 -9.6 14.8
23:25 1021 30.15 851 25.13 -0.1 31.8 49 -9.5 14.8
23:30 1021 30.15 851 25.13 0.1 32.2 48 -9.8 14.4
23:35 1021 30.15 851 25.13 0.3 32.5 48 -9.5 14.9
23:40 1021 30.15 851 25.13 0.5 32.8 47 -9.6 14.7
23:45 1021 30.15 851 25.13 0.5 32.9 47 -9.5 14.8
23:50 1022 30.18 851 25.13 0.4 32.7 48 -9.5 15
23:55 1022 30.18 851 25.13 0.3 32.6 48 -9.4 15
24:00 1022 30.18 851 25.13 0.3 32.5 48 -9.5 14.9